contacte
inicio
- ACTUALIZADO a las 16:32
Cámara en vivo
A 5 metros de altura
Dirección Noreste
Datos del día de Hoy
Parameter                   Max   Max Time        Min   Min Time    Average
Wind Direction              360      12:49          5      12:48        202
Wind Speed                   14      15:38          0       0:00          1
Wind Gust                    18      15:38          0       0:00          6
In Humidity                  41       4:18         34       0:00         39
Humidity                     73       2:35         37      15:03         56
In Temp                    31.2      16:10       28.2       8:28       29.9
Out Temp                   33.8      16:18       18.9       7:17       24.2
Raw Barometer           1016.86      12:46    1014.46      16:19    1015.71
Total Rain               266.40       0:00     266.40       0:00     266.40




1/9/26
Time         Wind Dir   Wind Spd  Wind Gust     Hum In   Humidity    Temp In       Temp  Raw Barom   Tot Rain
                    °      km/hr      km/hr          %          %         °C         °C         mb         mm
0:00              270          0          3         34         42       30.5       24.9    1015.51     266.40
0:20              270          0          0         35         42       30.5       24.7    1015.34     266.40
0:40              218          0          3         35         43       30.4       24.1    1015.38     266.40
1:00              215          2          5         35         58       30.2       22.2    1015.58     266.40
1:20              197          0          6         37         66       30.0       20.9    1015.68     266.40
1:40              197          0          5         38         70       29.9       20.4    1015.75     266.40
2:00              197          0          5         38         68       29.9       20.3    1016.05     266.40
2:20              197          0          3         39         71       29.8       20.4    1015.98     266.40
2:40              197          0          5         39         73       29.8       20.7    1015.95     266.40
3:00              197          0          5         40         73       29.8       20.7    1015.92     266.40
3:20              197          0          0         40         71       29.8       20.7    1015.95     266.40
3:40              197          0          0         40         72       29.7       20.3    1015.88     266.40
4:00              198          0          5         40         73       29.6       19.9    1015.75     266.40
4:20              198          0          0         40         73       29.6       19.8    1015.48     266.40
4:40              198          3          3         41         73       29.5       19.8    1015.34     266.40
5:00              198          0          6         41         72       29.3       19.6    1015.34     266.40
5:20              205          0          6         41         71       29.2       19.7    1015.24     266.40
5:40              205          0          2         41         70       29.1       19.8    1015.27     266.40
6:00              205          0          2         41         70       29.0       19.0    1015.14     266.40
6:20              205          0          3         41         70       28.8       19.3    1014.90     266.40
6:40              206          0          3         40         63       28.8       19.0    1014.73     266.40
7:00              206          0          3         40         60       28.7       19.1    1014.80     266.40
7:20              205          0          3         39         60       28.4       18.9    1015.11     266.40
7:40              205          0          0         39         64       28.3       19.1    1015.21     266.40
8:00              205          0          0         39         65       28.3       19.3    1015.27     266.40
8:20              205          0          0         40         64       28.3       19.4    1015.51     266.40
8:40              205          0          0         40         64       28.2       19.8    1015.65     266.40
9:00              205          0          0         40         62       28.4       20.9    1015.88     266.40
9:20              205          0          0         39         60       28.8       22.0    1016.05     266.40
9:40              205          2          3         39         59       29.1       23.1    1016.29     266.40
10:00             204          0          5         39         56       29.5       23.9    1016.29     266.40
10:20             204          0          3         38         53       29.9       24.8    1016.42     266.40
10:40             195          2          5         38         50       30.2       25.7    1016.49     266.40
11:00              98          0          6         38         50       30.4       26.2    1016.42     266.40
11:20             107          0          6         38         47       30.6       26.9    1016.59     266.40
11:40             130          0          3         37         44       30.7       27.9    1016.63     266.40
12:00             193          0          6         37         42       30.8       28.3    1016.69     266.40
12:20             209          0          8         37         42       30.8       28.6    1016.66     266.40
12:40             279          2          6         37         42       30.8       29.4    1016.56     266.40
13:00              28          0         13         36         40       30.9       30.4    1016.32     266.40
13:20             157          8          8         37         42       30.9       30.9    1016.12     266.40
13:40             191          0          8         38         43       30.9       31.3    1015.92     266.40
14:00             236          0         11         38         41       30.9       31.6    1015.75     266.40
14:20             288          0          8         38         41       30.9       32.2    1015.61     266.40
14:40             175          0          6         38         39       30.9       32.6    1015.44     266.40
15:00             245          6         11         38         38       31.0       33.2    1015.41     266.40
15:20             286          2         14         38         38       30.9       33.6    1015.21     266.40
15:40             161          2         14         38         40       31.0       33.7    1015.11     266.40
16:00             202          2         14         39         39       31.1       33.7    1014.73     266.40
16:20             242          5         14         39         38       31.2       33.8    1014.46     266.40
Miembro de: